sensor_id;sensor_type;location;lat;lon;timestamp;P1;durP1;ratioP1;P2;durP2;ratioP2
35803;SDS011;21924;51.934;7.414;2023-03-01T00:01:18;13.93;;;7.33;;
35803;SDS011;21924;51.934;7.414;2023-03-01T00:04:05;11.13;;;7.37;;
35803;SDS011;21924;51.934;7.414;2023-03-01T00:06:50;18.30;;;9.53;;
35803;SDS011;21924;51.934;7.414;2023-03-01T00:09:35;23.67;;;11.23;;
35803;SDS011;21924;51.934;7.414;2023-03-01T00:12:20;13.45;;;9.35;;
35803;SDS011;21924;51.934;7.414;2023-03-01T00:15:05;11.40;;;8.00;;
35803;SDS011;21924;51.934;7.414;2023-03-01T00:17:49;13.97;;;8.13;;
35803;SDS011;21924;51.934;7.414;2023-03-01T00:20:34;12.33;;;8.80;;
35803;SDS011;21924;51.934;7.414;2023-03-01T00:23:18;16.13;;;8.40;;
35803;SDS011;21924;51.934;7.414;2023-03-01T00:26:07;15.67;;;9.37;;
35803;SDS011;21924;51.934;7.414;2023-03-01T00:28:53;16.23;;;8.27;;
35803;SDS011;21924;51.934;7.414;2023-03-01T00:31:38;14.70;;;8.70;;
35803;SDS011;21924;51.934;7.414;2023-03-01T00:34:23;8.70;;;7.47;;
35803;SDS011;21924;51.934;7.414;2023-03-01T00:37:07;13.07;;;8.00;;
35803;SDS011;21924;51.934;7.414;2023-03-01T00:39:51;12.57;;;8.20;;
35803;SDS011;21924;51.934;7.414;2023-03-01T00:42:35;15.03;;;8.30;;
35803;SDS011;21924;51.934;7.414;2023-03-01T00:45:20;11.37;;;8.00;;
35803;SDS011;21924;51.934;7.414;2023-03-01T00:48:04;12.67;;;8.33;;
35803;SDS011;21924;51.934;7.414;2023-03-01T00:50:49;9.80;;;7.73;;
35803;SDS011;21924;51.934;7.414;2023-03-01T00:53:33;14.20;;;9.60;;
35803;SDS011;21924;51.934;7.414;2023-03-01T00:56:19;12.60;;;8.83;;
35803;SDS011;21924;51.934;7.414;2023-03-01T00:59:03;13.77;;;8.57;;
35803;SDS011;21924;51.934;7.414;2023-03-01T01:01:48;10.97;;;8.53;;
35803;SDS011;21924;51.934;7.414;2023-03-01T01:04:32;13.57;;;8.80;;
35803;SDS011;21924;51.934;7.414;2023-03-01T01:07:16;12.47;;;8.17;;
35803;SDS011;21924;51.934;7.414;2023-03-01T01:10:01;10.10;;;8.10;;
35803;SDS011;21924;51.934;7.414;2023-03-01T01:12:46;12.20;;;8.17;;
35803;SDS011;21924;51.934;7.414;2023-03-01T01:15:33;16.57;;;8.37;;
35803;SDS011;21924;51.934;7.414;2023-03-01T01:18:18;13.27;;;8.93;;
35803;SDS011;21924;51.934;7.414;2023-03-01T01:21:04;12.17;;;8.07;;
35803;SDS011;21924;51.934;7.414;2023-03-01T01:23:50;10.53;;;8.40;;
35803;SDS011;21924;51.934;7.414;2023-03-01T01:26:35;11.30;;;8.57;;
35803;SDS011;21924;51.934;7.414;2023-03-01T01:29:19;14.93;;;8.73;;
35803;SDS011;21924;51.934;7.414;2023-03-01T01:32:03;10.63;;;8.37;;
35803;SDS011;21924;51.934;7.414;2023-03-01T01:34:48;10.53;;;8.33;;
35803;SDS011;21924;51.934;7.414;2023-03-01T01:37:33;14.13;;;7.93;;
35803;SDS011;21924;51.934;7.414;2023-03-01T01:40:17;11.60;;;8.50;;
35803;SDS011;21924;51.934;7.414;2023-03-01T01:43:01;12.30;;;8.03;;
35803;SDS011;21924;51.934;7.414;2023-03-01T01:45:45;10.53;;;7.23;;
35803;SDS011;21924;51.934;7.414;2023-03-01T01:48:39;14.60;;;8.40;;
35803;SDS011;21924;51.934;7.414;2023-03-01T01:51:35;14.53;;;8.53;;
35803;SDS011;21924;51.934;7.414;2023-03-01T01:54:25;11.10;;;7.90;;
35803;SDS011;21924;51.934;7.414;2023-03-01T01:57:20;11.23;;;7.50;;
35803;SDS011;21924;51.934;7.414;2023-03-01T02:00:08;13.30;;;8.70;;
35803;SDS011;21924;51.934;7.414;2023-03-01T02:03:03;11.43;;;8.20;;
35803;SDS011;21924;51.934;7.414;2023-03-01T02:08:49;15.03;;;9.07;;
35803;SDS011;21924;51.934;7.414;2023-03-01T02:11:35;10.40;;;8.23;;
35803;SDS011;21924;51.934;7.414;2023-03-01T02:14:21;8.98;;;6.95;;
35803;SDS011;21924;51.934;7.414;2023-03-01T02:17:05;21.13;;;8.20;;
35803;SDS011;21924;51.934;7.414;2023-03-01T02:22:52;11.47;;;8.60;;
35803;SDS011;21924;51.934;7.414;2023-03-01T02:28:51;19.30;;;7.67;;
35803;SDS011;21924;51.934;7.414;2023-03-01T02:31:35;15.10;;;7.37;;
35803;SDS011;21924;51.934;7.414;2023-03-01T02:34:26;11.53;;;8.23;;
35803;SDS011;21924;51.934;7.414;2023-03-01T02:37:13;17.17;;;8.15;;
35803;SDS011;21924;51.934;7.414;2023-03-01T02:40:05;11.87;;;7.57;;
35803;SDS011;21924;51.934;7.414;2023-03-01T02:42:56;13.73;;;8.07;;
35803;SDS011;21924;51.934;7.414;2023-03-01T02:45:48;9.65;;;6.78;;
35803;SDS011;21924;51.934;7.414;2023-03-01T02:48:43;11.97;;;7.80;;
35803;SDS011;21924;51.934;7.414;2023-03-01T02:57:45;12.87;;;7.30;;
35803;SDS011;21924;51.934;7.414;2023-03-01T03:00:33;41.78;;;14.10;;
35803;SDS011;21924;51.934;7.414;2023-03-01T03:03:23;191.57;;;43.80;;
35803;SDS011;21924;51.934;7.414;2023-03-01T03:06:09;120.23;;;29.27;;
35803;SDS011;21924;51.934;7.414;2023-03-01T03:08:53;248.03;;;55.80;;
35803;SDS011;21924;51.934;7.414;2023-03-01T03:11:37;195.73;;;45.73;;
35803;SDS011;21924;51.934;7.414;2023-03-01T03:14:22;106.23;;;33.33;;
35803;SDS011;21924;51.934;7.414;2023-03-01T03:17:07;123.80;;;34.90;;
35803;SDS011;21924;51.934;7.414;2023-03-01T03:19:51;177.37;;;46.87;;
35803;SDS011;21924;51.934;7.414;2023-03-01T03:22:36;174.13;;;52.07;;
35803;SDS011;21924;51.934;7.414;2023-03-01T03:25:21;70.90;;;25.47;;
35803;SDS011;21924;51.934;7.414;2023-03-01T03:28:06;112.83;;;37.03;;
35803;SDS011;21924;51.934;7.414;2023-03-01T03:30:54;119.63;;;43.80;;
35803;SDS011;21924;51.934;7.414;2023-03-01T03:33:38;32.07;;;14.93;;
35803;SDS011;21924;51.934;7.414;2023-03-01T03:36:23;34.13;;;15.97;;
35803;SDS011;21924;51.934;7.414;2023-03-01T03:39:08;35.87;;;17.20;;
35803;SDS011;21924;51.934;7.414;2023-03-01T03:41:52;24.60;;;12.83;;
35803;SDS011;21924;51.934;7.414;2023-03-01T03:44:37;20.67;;;11.33;;
35803;SDS011;21924;51.934;7.414;2023-03-01T03:47:21;13.20;;;9.40;;
35803;SDS011;21924;51.934;7.414;2023-03-01T03:50:06;18.50;;;10.17;;
35803;SDS011;21924;51.934;7.414;2023-03-01T03:52:50;13.53;;;9.27;;
35803;SDS011;21924;51.934;7.414;2023-03-01T03:55:35;13.97;;;8.23;;
35803;SDS011;21924;51.934;7.414;2023-03-01T03:58:23;9.87;;;7.40;;
35803;SDS011;21924;51.934;7.414;2023-03-01T04:01:08;17.00;;;8.95;;
35803;SDS011;21924;51.934;7.414;2023-03-01T04:03:52;13.77;;;9.17;;
35803;SDS011;21924;51.934;7.414;2023-03-01T04:06:38;27.17;;;11.67;;
35803;SDS011;21924;51.934;7.414;2023-03-01T04:09:22;14.13;;;9.23;;
35803;SDS011;21924;51.934;7.414;2023-03-01T04:12:07;13.23;;;8.40;;
35803;SDS011;21924;51.934;7.414;2023-03-01T04:14:51;14.27;;;9.00;;
35803;SDS011;21924;51.934;7.414;2023-03-01T04:17:36;16.17;;;8.03;;
35803;SDS011;21924;51.934;7.414;2023-03-01T04:20:21;16.43;;;8.93;;
35803;SDS011;21924;51.934;7.414;2023-03-01T04:23:17;11.80;;;7.77;;
35803;SDS011;21924;51.934;7.414;2023-03-01T04:26:05;12.63;;;8.03;;
35803;SDS011;21924;51.934;7.414;2023-03-01T04:28:50;12.47;;;7.83;;
35803;SDS011;21924;51.934;7.414;2023-03-01T04:31:34;12.87;;;8.63;;
35803;SDS011;21924;51.934;7.414;2023-03-01T04:34:18;13.00;;;8.57;;
35803;SDS011;21924;51.934;7.414;2023-03-01T04:37:03;10.03;;;8.37;;
35803;SDS011;21924;51.934;7.414;2023-03-01T04:39:47;13.87;;;8.73;;
35803;SDS011;21924;51.934;7.414;2023-03-01T04:42:31;11.00;;;7.93;;
35803;SDS011;21924;51.934;7.414;2023-03-01T04:45:16;17.23;;;8.13;;
35803;SDS011;21924;51.934;7.414;2023-03-01T04:48:00;12.07;;;7.83;;
35803;SDS011;21924;51.934;7.414;2023-03-01T04:50:44;15.83;;;8.40;;
35803;SDS011;21924;51.934;7.414;2023-03-01T04:53:29;10.77;;;7.77;;
35803;SDS011;21924;51.934;7.414;2023-03-01T04:56:13;15.30;;;8.50;;
35803;SDS011;21924;51.934;7.414;2023-03-01T04:58:58;13.20;;;8.20;;
35803;SDS011;21924;51.934;7.414;2023-03-01T05:01:43;11.73;;;7.93;;
35803;SDS011;21924;51.934;7.414;2023-03-01T05:04:28;14.13;;;8.33;;
35803;SDS011;21924;51.934;7.414;2023-03-01T05:07:14;22.38;;;8.55;;
35803;SDS011;21924;51.934;7.414;2023-03-01T05:10:02;13.30;;;8.17;;
35803;SDS011;21924;51.934;7.414;2023-03-01T05:12:47;14.23;;;8.50;;
35803;SDS011;21924;51.934;7.414;2023-03-01T05:15:31;12.20;;;7.90;;
35803;SDS011;21924;51.934;7.414;2023-03-01T05:18:16;11.23;;;8.40;;
35803;SDS011;21924;51.934;7.414;2023-03-01T05:21:07;18.53;;;9.43;;
35803;SDS011;21924;51.934;7.414;2023-03-01T05:23:53;13.67;;;8.93;;
35803;SDS011;21924;51.934;7.414;2023-03-01T05:26:38;13.23;;;8.13;;
35803;SDS011;21924;51.934;7.414;2023-03-01T05:29:24;14.80;;;8.65;;
35803;SDS011;21924;51.934;7.414;2023-03-01T05:32:10;10.57;;;8.65;;
35803;SDS011;21924;51.934;7.414;2023-03-01T05:34:58;13.03;;;7.93;;
35803;SDS011;21924;51.934;7.414;2023-03-01T05:37:44;11.80;;;8.50;;
35803;SDS011;21924;51.934;7.414;2023-03-01T05:40:29;16.92;;;9.13;;
35803;SDS011;21924;51.934;7.414;2023-03-01T05:43:14;11.57;;;8.03;;
35803;SDS011;21924;51.934;7.414;2023-03-01T05:45:59;12.37;;;8.47;;
35803;SDS011;21924;51.934;7.414;2023-03-01T05:48:43;11.20;;;7.90;;
35803;SDS011;21924;51.934;7.414;2023-03-01T05:51:28;19.10;;;9.13;;
35803;SDS011;21924;51.934;7.414;2023-03-01T05:54:12;16.97;;;9.77;;
35803;SDS011;21924;51.934;7.414;2023-03-01T05:56:56;14.73;;;9.43;;
35803;SDS011;21924;51.934;7.414;2023-03-01T05:59:41;12.33;;;8.87;;
35803;SDS011;21924;51.934;7.414;2023-03-01T06:02:25;13.13;;;8.20;;
35803;SDS011;21924;51.934;7.414;2023-03-01T06:05:11;11.83;;;8.07;;
35803;SDS011;21924;51.934;7.414;2023-03-01T06:08:00;13.90;;;9.38;;
35803;SDS011;21924;51.934;7.414;2023-03-01T06:10:45;17.40;;;8.60;;
35803;SDS011;21924;51.934;7.414;2023-03-01T06:13:31;12.75;;;9.20;;
35803;SDS011;21924;51.934;7.414;2023-03-01T06:16:15;12.30;;;8.73;;
35803;SDS011;21924;51.934;7.414;2023-03-01T06:18:59;12.20;;;8.20;;
35803;SDS011;21924;51.934;7.414;2023-03-01T06:21:43;19.63;;;9.80;;
35803;SDS011;21924;51.934;7.414;2023-03-01T06:24:28;13.17;;;8.73;;
35803;SDS011;21924;51.934;7.414;2023-03-01T06:27:12;13.70;;;9.33;;
35803;SDS011;21924;51.934;7.414;2023-03-01T06:29:56;20.97;;;9.83;;
35803;SDS011;21924;51.934;7.414;2023-03-01T06:32:41;16.83;;;9.13;;
35803;SDS011;21924;51.934;7.414;2023-03-01T06:35:28;13.67;;;9.67;;
35803;SDS011;21924;51.934;7.414;2023-03-01T06:38:14;21.30;;;9.33;;
35803;SDS011;21924;51.934;7.414;2023-03-01T06:40:58;20.43;;;9.40;;
35803;SDS011;21924;51.934;7.414;2023-03-01T06:43:42;16.87;;;10.37;;
35803;SDS011;21924;51.934;7.414;2023-03-01T06:46:27;19.03;;;10.30;;
35803;SDS011;21924;51.934;7.414;2023-03-01T06:49:11;18.40;;;9.57;;
35803;SDS011;21924;51.934;7.414;2023-03-01T06:51:55;16.90;;;10.13;;
35803;SDS011;21924;51.934;7.414;2023-03-01T06:54:40;20.87;;;10.50;;
35803;SDS011;21924;51.934;7.414;2023-03-01T06:57:24;12.20;;;9.73;;
35803;SDS011;21924;51.934;7.414;2023-03-01T07:00:09;19.43;;;10.20;;
35803;SDS011;21924;51.934;7.414;2023-03-01T07:02:54;13.97;;;9.70;;
35803;SDS011;21924;51.934;7.414;2023-03-01T07:05:41;24.23;;;10.33;;
35803;SDS011;21924;51.934;7.414;2023-03-01T07:08:25;19.97;;;10.63;;
35803;SDS011;21924;51.934;7.414;2023-03-01T07:11:10;133.50;;;30.90;;
35803;SDS011;21924;51.934;7.414;2023-03-01T07:13:54;101.73;;;25.20;;
35803;SDS011;21924;51.934;7.414;2023-03-01T07:16:39;72.03;;;22.27;;
35803;SDS011;21924;51.934;7.414;2023-03-01T07:19:23;269.57;;;78.17;;
35803;SDS011;21924;51.934;7.414;2023-03-01T07:22:07;233.50;;;79.17;;
35803;SDS011;21924;51.934;7.414;2023-03-01T07:24:52;81.70;;;30.50;;
35803;SDS011;21924;51.934;7.414;2023-03-01T07:27:37;31.27;;;15.07;;
35803;SDS011;21924;51.934;7.414;2023-03-01T07:30:21;31.87;;;11.67;;
35803;SDS011;21924;51.934;7.414;2023-03-01T07:33:06;32.43;;;14.27;;
35803;SDS011;21924;51.934;7.414;2023-03-01T07:35:55;20.70;;;12.57;;
35803;SDS011;21924;51.934;7.414;2023-03-01T07:38:40;26.90;;;12.00;;
35803;SDS011;21924;51.934;7.414;2023-03-01T07:41:24;16.23;;;9.97;;
35803;SDS011;21924;51.934;7.414;2023-03-01T07:44:09;56.17;;;27.53;;
35803;SDS011;21924;51.934;7.414;2023-03-01T07:46:53;26.97;;;13.03;;
35803;SDS011;21924;51.934;7.414;2023-03-01T07:49:40;22.67;;;13.83;;
35803;SDS011;21924;51.934;7.414;2023-03-01T07:52:24;22.47;;;13.30;;
35803;SDS011;21924;51.934;7.414;2023-03-01T07:55:08;24.90;;;10.07;;
35803;SDS011;21924;51.934;7.414;2023-03-01T07:57:53;16.63;;;9.67;;
35803;SDS011;21924;51.934;7.414;2023-03-01T08:00:37;22.43;;;11.83;;
35803;SDS011;21924;51.934;7.414;2023-03-01T08:03:21;16.20;;;9.10;;
35803;SDS011;21924;51.934;7.414;2023-03-01T08:06:06;18.73;;;10.37;;
35803;SDS011;21924;51.934;7.414;2023-03-01T08:08:52;38.58;;;17.95;;
35803;SDS011;21924;51.934;7.414;2023-03-01T08:11:38;17.40;;;10.45;;
35803;SDS011;21924;51.934;7.414;2023-03-01T08:14:23;18.67;;;11.10;;
35803;SDS011;21924;51.934;7.414;2023-03-01T08:17:07;13.87;;;9.63;;
35803;SDS011;21924;51.934;7.414;2023-03-01T08:19:51;21.33;;;10.77;;
35803;SDS011;21924;51.934;7.414;2023-03-01T08:22:35;16.87;;;9.47;;
35803;SDS011;21924;51.934;7.414;2023-03-01T08:25:19;13.67;;;8.73;;
35803;SDS011;21924;51.934;7.414;2023-03-01T08:28:04;18.63;;;9.80;;
35803;SDS011;21924;51.934;7.414;2023-03-01T08:30:48;26.73;;;9.40;;
35803;SDS011;21924;51.934;7.414;2023-03-01T08:33:33;17.93;;;10.43;;
35803;SDS011;21924;51.934;7.414;2023-03-01T08:36:17;15.23;;;9.20;;
35803;SDS011;21924;51.934;7.414;2023-03-01T08:39:03;14.20;;;9.90;;
35803;SDS011;21924;51.934;7.414;2023-03-01T08:41:48;14.30;;;9.37;;
35803;SDS011;21924;51.934;7.414;2023-03-01T08:44:33;17.10;;;8.57;;
35803;SDS011;21924;51.934;7.414;2023-03-01T08:47:18;19.60;;;9.13;;
35803;SDS011;21924;51.934;7.414;2023-03-01T08:50:02;20.40;;;9.73;;
35803;SDS011;21924;51.934;7.414;2023-03-01T08:52:48;18.87;;;10.00;;
35803;SDS011;21924;51.934;7.414;2023-03-01T08:55:32;14.93;;;9.53;;
35803;SDS011;21924;51.934;7.414;2023-03-01T08:58:16;12.13;;;8.60;;
35803;SDS011;21924;51.934;7.414;2023-03-01T09:01:01;15.10;;;8.97;;
35803;SDS011;21924;51.934;7.414;2023-03-01T09:03:51;15.27;;;9.30;;
35803;SDS011;21924;51.934;7.414;2023-03-01T09:06:35;15.93;;;8.77;;
35803;SDS011;21924;51.934;7.414;2023-03-01T09:09:19;15.27;;;8.83;;
35803;SDS011;21924;51.934;7.414;2023-03-01T09:12:04;14.47;;;9.70;;
35803;SDS011;21924;51.934;7.414;2023-03-01T09:14:49;13.02;;;7.05;;
35803;SDS011;21924;51.934;7.414;2023-03-01T09:17:34;18.53;;;8.53;;
35803;SDS011;21924;51.934;7.414;2023-03-01T09:20:18;17.50;;;9.67;;
35803;SDS011;21924;51.934;7.414;2023-03-01T09:23:02;14.90;;;8.83;;
35803;SDS011;21924;51.934;7.414;2023-03-01T09:25:46;16.67;;;8.70;;
35803;SDS011;21924;51.934;7.414;2023-03-01T09:28:31;17.73;;;8.97;;
35803;SDS011;21924;51.934;7.414;2023-03-01T09:31:16;15.80;;;8.50;;
35803;SDS011;21924;51.934;7.414;2023-03-01T09:34:01;20.42;;;9.10;;
35803;SDS011;21924;51.934;7.414;2023-03-01T09:36:45;13.63;;;8.07;;
35803;SDS011;21924;51.934;7.414;2023-03-01T09:39:30;21.33;;;9.50;;
35803;SDS011;21924;51.934;7.414;2023-03-01T09:42:15;15.67;;;8.47;;
35803;SDS011;21924;51.934;7.414;2023-03-01T09:45:02;11.10;;;7.60;;
35803;SDS011;21924;51.934;7.414;2023-03-01T09:47:49;11.60;;;7.93;;
35803;SDS011;21924;51.934;7.414;2023-03-01T09:50:35;17.90;;;8.07;;
35803;SDS011;21924;51.934;7.414;2023-03-01T09:53:24;11.20;;;7.47;;
35803;SDS011;21924;51.934;7.414;2023-03-01T09:56:22;13.32;;;7.82;;
35803;SDS011;21924;51.934;7.414;2023-03-01T09:59:25;13.47;;;7.10;;
35803;SDS011;21924;51.934;7.414;2023-03-01T10:11:23;10.23;;;7.10;;
35803;SDS011;21924;51.934;7.414;2023-03-01T10:17:05;13.95;;;7.60;;
35803;SDS011;21924;51.934;7.414;2023-03-01T10:20:20;16.02;;;7.82;;
35803;SDS011;21924;51.934;7.414;2023-03-01T10:23:07;15.70;;;8.98;;
35803;SDS011;21924;51.934;7.414;2023-03-01T10:29:10;12.23;;;8.05;;
35803;SDS011;21924;51.934;7.414;2023-03-01T10:31:56;15.88;;;8.63;;
35803;SDS011;21924;51.934;7.414;2023-03-01T10:34:40;13.20;;;8.07;;
35803;SDS011;21924;51.934;7.414;2023-03-01T10:37:24;14.15;;;8.60;;
35803;SDS011;21924;51.934;7.414;2023-03-01T10:40:10;12.88;;;7.90;;
35803;SDS011;21924;51.934;7.414;2023-03-01T10:42:57;14.57;;;8.00;;
35803;SDS011;21924;51.934;7.414;2023-03-01T10:45:42;13.73;;;8.05;;
35803;SDS011;21924;51.934;7.414;2023-03-01T10:48:27;14.23;;;7.63;;
35803;SDS011;21924;51.934;7.414;2023-03-01T10:51:15;14.45;;;8.13;;
35803;SDS011;21924;51.934;7.414;2023-03-01T10:54:03;14.32;;;8.43;;
35803;SDS011;21924;51.934;7.414;2023-03-01T10:56:50;13.38;;;6.53;;
35803;SDS011;21924;51.934;7.414;2023-03-01T10:59:37;17.65;;;8.32;;
35803;SDS011;21924;51.934;7.414;2023-03-01T11:02:27;16.08;;;8.73;;
35803;SDS011;21924;51.934;7.414;2023-03-01T11:07:59;19.13;;;9.25;;
35803;SDS011;21924;51.934;7.414;2023-03-01T11:10:44;21.45;;;9.77;;
35803;SDS011;21924;51.934;7.414;2023-03-01T11:13:28;13.52;;;8.00;;
35803;SDS011;21924;51.934;7.414;2023-03-01T11:16:13;18.52;;;8.18;;
35803;SDS011;21924;51.934;7.414;2023-03-01T11:18:58;19.35;;;8.68;;
35803;SDS011;21924;51.934;7.414;2023-03-01T11:21:50;21.75;;;9.63;;
35803;SDS011;21924;51.934;7.414;2023-03-01T11:24:40;14.23;;;8.45;;
35803;SDS011;21924;51.934;7.414;2023-03-01T11:27:30;15.98;;;8.52;;
35803;SDS011;21924;51.934;7.414;2023-03-01T11:39:17;15.65;;;8.55;;
35803;SDS011;21924;51.934;7.414;2023-03-01T11:45:23;13.23;;;8.02;;
35803;SDS011;21924;51.934;7.414;2023-03-01T11:51:24;19.55;;;9.20;;
35803;SDS011;21924;51.934;7.414;2023-03-01T11:57:25;14.48;;;8.15;;
35803;SDS011;21924;51.934;7.414;2023-03-01T12:06:39;13.52;;;7.53;;
35803;SDS011;21924;51.934;7.414;2023-03-01T12:15:39;15.40;;;8.23;;
35803;SDS011;21924;51.934;7.414;2023-03-01T12:34:33;13.75;;;6.97;;
35803;SDS011;21924;51.934;7.414;2023-03-01T12:44:30;13.52;;;7.00;;
35803;SDS011;21924;51.934;7.414;2023-03-01T12:50:53;10.63;;;7.22;;
35803;SDS011;21924;51.934;7.414;2023-03-01T12:56:28;15.98;;;6.43;;
35803;SDS011;21924;51.934;7.414;2023-03-01T13:02:19;12.07;;;6.63;;
35803;SDS011;21924;51.934;7.414;2023-03-01T13:11:16;15.00;;;7.53;;
35803;SDS011;21924;51.934;7.414;2023-03-01T13:17:20;12.82;;;7.22;;
35803;SDS011;21924;51.934;7.414;2023-03-01T13:20:17;9.75;;;6.95;;
35803;SDS011;21924;51.934;7.414;2023-03-01T13:26:07;8.57;;;5.57;;
35803;SDS011;21924;51.934;7.414;2023-03-01T13:29:13;13.32;;;6.57;;
35803;SDS011;21924;51.934;7.414;2023-03-01T13:38:37;49.45;;;15.20;;
35803;SDS011;21924;51.934;7.414;2023-03-01T13:47:20;77.45;;;21.23;;
35803;SDS011;21924;51.934;7.414;2023-03-01T13:50:05;16.05;;;7.28;;
35803;SDS011;21924;51.934;7.414;2023-03-01T13:52:52;43.70;;;13.27;;
35803;SDS011;21924;51.934;7.414;2023-03-01T13:55:43;14.15;;;7.55;;
35803;SDS011;21924;51.934;7.414;2023-03-01T13:58:33;62.15;;;16.63;;
35803;SDS011;21924;51.934;7.414;2023-03-01T14:01:38;11.82;;;6.20;;
35803;SDS011;21924;51.934;7.414;2023-03-01T14:04:24;19.17;;;8.10;;
35803;SDS011;21924;51.934;7.414;2023-03-01T14:07:18;12.23;;;7.22;;
35803;SDS011;21924;51.934;7.414;2023-03-01T14:10:04;23.50;;;10.95;;
35803;SDS011;21924;51.934;7.414;2023-03-01T14:13:09;14.10;;;6.83;;
35803;SDS011;21924;51.934;7.414;2023-03-01T14:19:17;8.07;;;5.45;;
35803;SDS011;21924;51.934;7.414;2023-03-01T14:22:21;10.55;;;6.43;;
35803;SDS011;21924;51.934;7.414;2023-03-01T14:25:27;9.75;;;6.07;;
35803;SDS011;21924;51.934;7.414;2023-03-01T14:28:19;10.43;;;6.25;;
35803;SDS011;21924;51.934;7.414;2023-03-01T14:34:19;10.32;;;6.35;;
35803;SDS011;21924;51.934;7.414;2023-03-01T14:37:16;12.85;;;6.07;;
35803;SDS011;21924;51.934;7.414;2023-03-01T14:40:21;9.60;;;6.05;;
35803;SDS011;21924;51.934;7.414;2023-03-01T14:43:11;9.40;;;6.63;;
35803;SDS011;21924;51.934;7.414;2023-03-01T14:45:59;10.60;;;6.63;;
35803;SDS011;21924;51.934;7.414;2023-03-01T14:48:44;12.48;;;6.80;;
35803;SDS011;21924;51.934;7.414;2023-03-01T14:51:28;13.05;;;6.63;;
35803;SDS011;21924;51.934;7.414;2023-03-01T14:54:27;14.75;;;6.63;;
35803;SDS011;21924;51.934;7.414;2023-03-01T14:57:20;8.93;;;6.00;;
35803;SDS011;21924;51.934;7.414;2023-03-01T15:00:06;10.52;;;6.00;;
35803;SDS011;21924;51.934;7.414;2023-03-01T15:02:52;10.80;;;7.38;;
35803;SDS011;21924;51.934;7.414;2023-03-01T15:05:38;44.95;;;21.00;;
35803;SDS011;21924;51.934;7.414;2023-03-01T15:13:57;10.95;;;5.93;;
35803;SDS011;21924;51.934;7.414;2023-03-01T15:16:42;8.32;;;5.47;;
35803;SDS011;21924;51.934;7.414;2023-03-01T15:19:28;8.95;;;5.68;;
35803;SDS011;21924;51.934;7.414;2023-03-01T15:22:16;8.85;;;6.63;;
35803;SDS011;21924;51.934;7.414;2023-03-01T15:25:00;9.93;;;5.57;;
35803;SDS011;21924;51.934;7.414;2023-03-01T15:27:45;15.40;;;6.78;;
35803;SDS011;21924;51.934;7.414;2023-03-01T15:30:32;7.65;;;5.47;;
35803;SDS011;21924;51.934;7.414;2023-03-01T15:45:19;13.27;;;5.90;;
35803;SDS011;21924;51.934;7.414;2023-03-01T15:48:15;9.88;;;5.60;;
35803;SDS011;21924;51.934;7.414;2023-03-01T15:51:03;10.27;;;5.68;;
35803;SDS011;21924;51.934;7.414;2023-03-01T15:53:51;11.02;;;5.47;;
35803;SDS011;21924;51.934;7.414;2023-03-01T15:56:36;14.27;;;5.80;;
35803;SDS011;21924;51.934;7.414;2023-03-01T15:59:21;7.40;;;5.47;;
35803;SDS011;21924;51.934;7.414;2023-03-01T16:02:10;9.02;;;5.57;;
35803;SDS011;21924;51.934;7.414;2023-03-01T16:04:57;8.35;;;5.57;;
35803;SDS011;21924;51.934;7.414;2023-03-01T16:07:41;9.82;;;5.47;;
35803;SDS011;21924;51.934;7.414;2023-03-01T16:10:26;6.82;;;4.70;;
35803;SDS011;21924;51.934;7.414;2023-03-01T16:13:14;12.32;;;5.80;;
35803;SDS011;21924;51.934;7.414;2023-03-01T16:15:58;9.73;;;5.45;;
35803;SDS011;21924;51.934;7.414;2023-03-01T16:18:43;9.63;;;5.95;;
35803;SDS011;21924;51.934;7.414;2023-03-01T16:21:29;14.02;;;6.43;;
35803;SDS011;21924;51.934;7.414;2023-03-01T16:24:14;10.30;;;5.47;;
35803;SDS011;21924;51.934;7.414;2023-03-01T16:26:58;11.10;;;6.07;;
35803;SDS011;21924;51.934;7.414;2023-03-01T16:29:42;9.40;;;5.53;;
35803;SDS011;21924;51.934;7.414;2023-03-01T16:32:26;11.65;;;5.60;;
35803;SDS011;21924;51.934;7.414;2023-03-01T16:35:12;9.15;;;5.68;;
35803;SDS011;21924;51.934;7.414;2023-03-01T16:37:59;8.85;;;5.47;;
35803;SDS011;21924;51.934;7.414;2023-03-01T16:40:46;8.20;;;5.38;;
35803;SDS011;21924;51.934;7.414;2023-03-01T16:43:31;11.05;;;5.78;;
35803;SDS011;21924;51.934;7.414;2023-03-01T16:46:17;12.73;;;5.90;;
35803;SDS011;21924;51.934;7.414;2023-03-01T16:49:03;8.70;;;5.10;;
35803;SDS011;21924;51.934;7.414;2023-03-01T16:51:48;14.98;;;6.68;;
35803;SDS011;21924;51.934;7.414;2023-03-01T16:54:32;13.25;;;7.03;;
35803;SDS011;21924;51.934;7.414;2023-03-01T16:57:17;11.77;;;6.57;;
35803;SDS011;21924;51.934;7.414;2023-03-01T17:00:01;10.77;;;6.40;;
35803;SDS011;21924;51.934;7.414;2023-03-01T17:02:48;10.75;;;6.13;;
35803;SDS011;21924;51.934;7.414;2023-03-01T17:05:33;9.15;;;5.70;;
35803;SDS011;21924;51.934;7.414;2023-03-01T17:08:17;14.52;;;5.78;;
35803;SDS011;21924;51.934;7.414;2023-03-01T17:11:06;8.20;;;5.13;;
35803;SDS011;21924;51.934;7.414;2023-03-01T17:13:54;7.97;;;5.20;;
35803;SDS011;21924;51.934;7.414;2023-03-01T17:16:39;8.38;;;5.53;;
35803;SDS011;21924;51.934;7.414;2023-03-01T17:19:23;8.45;;;5.40;;
35803;SDS011;21924;51.934;7.414;2023-03-01T17:22:08;9.05;;;6.30;;
35803;SDS011;21924;51.934;7.414;2023-03-01T17:24:53;10.48;;;6.00;;
35803;SDS011;21924;51.934;7.414;2023-03-01T17:27:37;12.45;;;5.72;;
35803;SDS011;21924;51.934;7.414;2023-03-01T17:30:22;9.13;;;6.60;;
35803;SDS011;21924;51.934;7.414;2023-03-01T17:33:07;8.65;;;5.63;;
35803;SDS011;21924;51.934;7.414;2023-03-01T17:35:51;8.27;;;5.60;;
35803;SDS011;21924;51.934;7.414;2023-03-01T17:38:35;10.02;;;6.43;;
35803;SDS011;21924;51.934;7.414;2023-03-01T17:41:19;10.23;;;6.28;;
35803;SDS011;21924;51.934;7.414;2023-03-01T17:44:06;11.85;;;7.20;;
35803;SDS011;21924;51.934;7.414;2023-03-01T17:46:50;8.80;;;5.90;;
35803;SDS011;21924;51.934;7.414;2023-03-01T17:49:34;8.25;;;5.55;;
35803;SDS011;21924;51.934;7.414;2023-03-01T17:52:19;8.38;;;5.57;;
35803;SDS011;21924;51.934;7.414;2023-03-01T17:55:07;8.98;;;5.50;;
35803;SDS011;21924;51.934;7.414;2023-03-01T17:57:52;14.38;;;5.22;;
35803;SDS011;21924;51.934;7.414;2023-03-01T18:00:36;13.73;;;6.93;;
35803;SDS011;21924;51.934;7.414;2023-03-01T18:03:21;8.63;;;5.53;;
35803;SDS011;21924;51.934;7.414;2023-03-01T18:06:15;12.00;;;7.50;;
35803;SDS011;21924;51.934;7.414;2023-03-01T18:09:02;13.82;;;8.07;;
35803;SDS011;21924;51.934;7.414;2023-03-01T18:11:46;11.13;;;6.47;;
35803;SDS011;21924;51.934;7.414;2023-03-01T18:14:31;17.05;;;6.43;;
35803;SDS011;21924;51.934;7.414;2023-03-01T18:17:16;9.80;;;6.60;;
35803;SDS011;21924;51.934;7.414;2023-03-01T18:20:00;6.38;;;5.03;;
35803;SDS011;21924;51.934;7.414;2023-03-01T18:22:45;9.98;;;6.10;;
35803;SDS011;21924;51.934;7.414;2023-03-01T18:25:30;81.13;;;21.53;;
35803;SDS011;21924;51.934;7.414;2023-03-01T18:28:14;106.88;;;25.00;;
35803;SDS011;21924;51.934;7.414;2023-03-01T18:30:59;71.20;;;18.92;;
35803;SDS011;21924;51.934;7.414;2023-03-01T18:33:46;224.65;;;45.80;;
35803;SDS011;21924;51.934;7.414;2023-03-01T18:36:32;197.43;;;43.00;;
35803;SDS011;21924;51.934;7.414;2023-03-01T18:39:17;205.98;;;44.05;;
35803;SDS011;21924;51.934;7.414;2023-03-01T18:42:03;48.73;;;18.97;;
35803;SDS011;21924;51.934;7.414;2023-03-01T18:44:47;15.27;;;8.05;;
35803;SDS011;21924;51.934;7.414;2023-03-01T18:47:32;8.43;;;5.70;;
35803;SDS011;21924;51.934;7.414;2023-03-01T18:50:16;11.60;;;6.93;;
35803;SDS011;21924;51.934;7.414;2023-03-01T18:53:01;14.73;;;6.83;;